Time;durP1;ratioP1;P1;durP2;ratioP2;P2;SDS_P1;SDS_P2;PMS_P1;PMS_P2;Temp;Humidity;BMP_temperature;BMP_pressure;BME280_temperature;BME280_humidity;BME280_pressure;Samples;Min_cycle;Max_cycle;Signal;HPM_P1;HPM_P2
2020/12/15 00:00:11;;;;;;;14.83;8.07;;;1.80;99.90;;;;;;2074009;28;20225;-67
2020/12/15 00:01:12;;;;;;;9.67;5.87;;;1.80;99.90;;;;;;2073575;28;20189;-66
2020/12/15 00:02:12;;;;;;;11.30;6.60;;;1.90;99.90;;;;;;2073813;28;20190;-66
2020/12/15 00:03:13;;;;;;;8.37;5.87;;;1.90;99.90;;;;;;2073886;28;20185;-67
2020/12/15 00:04:14;;;;;;;11.10;6.00;;;1.90;99.90;;;;;;2073778;28;20595;-66
2020/12/15 00:05:15;;;;;;;9.17;5.43;;;1.90;99.90;;;;;;2073874;28;20182;-67
2020/12/15 00:06:16;;;;;;;10.20;5.78;;;1.90;99.90;;;;;;2073816;28;20811;-66
2020/12/15 00:07:17;;;;;;;9.30;5.60;;;1.90;99.90;;;;;;2073841;28;20189;-66
2020/12/15 00:08:17;;;;;;;8.90;5.27;;;1.80;99.90;;;;;;2073684;28;20292;-67
2020/12/15 00:09:18;;;;;;;10.87;5.80;;;1.80;99.90;;;;;;2073789;28;20209;-67
2020/12/15 00:10:19;;;;;;;9.57;5.10;;;1.80;99.90;;;;;;2073820;28;20205;-67
2020/12/15 00:11:19;;;;;;;13.23;6.30;;;1.80;99.90;;;;;;2073618;28;20174;-66
2020/12/15 00:12:20;;;;;;;9.27;5.63;;;1.90;99.90;;;;;;2073686;28;20660;-66
2020/12/15 00:13:21;;;;;;;11.87;5.40;;;1.90;99.90;;;;;;2073886;28;20181;-68
2020/12/15 00:14:21;;;;;;;8.07;5.13;;;1.90;99.90;;;;;;2073648;28;20196;-67
2020/12/15 00:15:22;;;;;;;6.50;4.23;;;2.00;99.90;;;;;;2073736;28;20220;-67
2020/12/15 00:16:23;;;;;;;7.83;5.40;;;1.90;99.90;;;;;;2073705;28;20186;-66
2020/12/15 00:17:23;;;;;;;11.00;5.27;;;1.90;99.90;;;;;;2073738;28;20201;-66
2020/12/15 00:18:24;;;;;;;9.23;5.43;;;1.80;99.90;;;;;;2073795;28;20222;-67
2020/12/15 00:19:26;;;;;;;8.67;5.53;;;1.80;99.90;;;;;;2073857;28;20217;-66
2020/12/15 00:20:27;;;;;;;9.15;5.35;;;1.80;99.90;;;;;;2073611;28;20200;-66
2020/12/15 00:21:28;;;;;;;9.13;5.17;;;1.80;99.90;;;;;;2072242;28;20614;-66
2020/12/15 00:22:29;;;;;;;11.27;5.68;;;1.80;99.90;;;;;;2073872;28;20185;-66
2020/12/15 00:23:29;;;;;;;8.60;4.60;;;1.80;99.90;;;;;;2073803;28;20205;-67
2020/12/15 00:24:30;;;;;;;10.73;5.90;;;1.90;99.90;;;;;;2064888;28;20242;-66
2020/12/15 00:25:31;;;;;;;9.75;5.63;;;1.90;99.90;;;;;;2057130;28;20179;-66
2020/12/15 00:26:32;;;;;;;12.83;5.50;;;1.90;99.90;;;;;;2064766;28;20186;-66
2020/12/15 00:27:32;;;;;;;10.13;5.50;;;2.00;99.90;;;;;;2073614;28;20166;-66
2020/12/15 00:28:33;;;;;;;12.43;6.10;;;1.90;99.90;;;;;;2073629;28;20181;-66
2020/12/15 00:29:35;;;;;;;13.73;5.97;;;2.00;99.90;;;;;;2073663;28;20542;-66
2020/12/15 00:30:36;;;;;;;9.90;4.82;;;2.00;99.90;;;;;;2073530;28;20597;-66
2020/12/15 00:31:37;;;;;;;6.90;4.17;;;2.00;99.90;;;;;;2072601;28;20224;-66
2020/12/15 00:32:37;;;;;;;7.47;4.67;;;2.00;99.90;;;;;;2072942;28;20925;-66
2020/12/15 00:33:38;;;;;;;9.10;5.13;;;2.10;99.90;;;;;;2073832;28;20170;-66
2020/12/15 00:34:39;;;;;;;6.80;5.03;;;2.20;99.90;;;;;;2073738;28;20536;-66
2020/12/15 00:35:39;;;;;;;5.73;4.03;;;2.20;99.90;;;;;;2073602;28;20170;-66
2020/12/15 00:36:40;;;;;;;6.37;3.83;;;2.20;99.90;;;;;;2073669;28;20663;-66
2020/12/15 00:37:41;;;;;;;6.97;4.57;;;2.30;99.90;;;;;;2073525;28;20178;-66
2020/12/15 00:38:41;;;;;;;7.40;4.40;;;2.30;99.90;;;;;;2073688;28;20186;-66
2020/12/15 00:39:42;;;;;;;5.07;3.63;;;2.40;99.90;;;;;;2073697;28;20173;-66
2020/12/15 00:40:43;;;;;;;5.80;4.00;;;2.40;99.90;;;;;;2073495;28;20170;-66
2020/12/15 00:41:49;;;;;;;7.47;4.50;;;2.50;99.90;;;;;;2073376;28;20208;-66
2020/12/15 00:42:50;;;;;;;4.82;3.63;;;2.60;99.90;;;;;;2064679;28;20183;-66
2020/12/15 00:43:51;;;;;;;6.73;3.90;;;2.50;99.90;;;;;;2064935;28;20277;-66
2020/12/15 00:44:51;;;;;;;7.53;4.27;;;2.60;99.90;;;;;;2065015;28;20198;-66
2020/12/15 00:45:52;;;;;;;8.23;4.27;;;2.60;99.90;;;;;;2065002;28;20175;-66
2020/12/15 00:46:53;;;;;;;6.73;4.47;;;2.60;99.90;;;;;;2073498;28;20186;-66
2020/12/15 00:47:53;;;;;;;8.23;4.87;;;2.60;99.90;;;;;;2073656;28;20209;-66
2020/12/15 00:48:54;;;;;;;7.90;5.37;;;2.60;99.90;;;;;;2076831;28;20170;-66
2020/12/15 00:49:55;;;;;;;9.30;4.97;;;2.60;99.90;;;;;;2080885;28;20800;-66
2020/12/15 00:50:56;;;;;;;7.33;4.60;;;2.60;99.90;;;;;;2080511;28;20253;-66
2020/12/15 00:51:56;;;;;;;5.53;4.27;;;2.60;99.90;;;;;;2080036;28;20185;-66
2020/12/15 00:52:57;;;;;;;6.77;4.10;;;2.60;99.90;;;;;;2080051;28;20217;-66
2020/12/15 00:53:58;;;;;;;9.17;4.60;;;2.70;99.90;;;;;;2075692;28;20186;-66
2020/12/15 00:54:58;;;;;;;6.33;4.37;;;2.70;99.90;;;;;;2065381;28;20182;-66
2020/12/15 00:55:59;;;;;;;7.97;4.57;;;2.70;99.90;;;;;;2065343;28;20182;-66
2020/12/15 00:57:00;;;;;;;7.63;4.33;;;2.60;99.90;;;;;;2073830;28;20192;-66
2020/12/15 00:58:00;;;;;;;6.70;4.97;;;2.60;99.90;;;;;;2073537;28;20214;-66
2020/12/15 00:59:01;;;;;;;8.33;5.43;;;2.60;99.90;;;;;;2073652;28;20914;-66
2020/12/15 01:00:08;;;;;;;7.40;4.93;;;2.70;99.90;;;;;;2075764;28;20277;-66
2020/12/15 01:01:11;;;;;;;8.00;4.50;;;2.70;99.90;;;;;;2079549;28;20170;-66
2020/12/15 01:02:12;;;;;;;5.68;4.03;;;2.60;99.90;;;;;;2079501;28;20189;-66
2020/12/15 01:03:13;;;;;;;7.00;4.25;;;2.60;99.90;;;;;;2079317;28;20185;-66
2020/12/15 01:04:13;;;;;;;4.80;3.50;;;2.60;99.90;;;;;;2073403;28;20213;-66
2020/12/15 01:05:14;;;;;;;5.93;4.20;;;2.60;99.90;;;;;;2073547;28;20178;-66
2020/12/15 01:06:15;;;;;;;4.30;3.22;;;2.60;99.90;;;;;;2064822;28;20306;-66
2020/12/15 01:07:16;;;;;;;3.97;2.80;;;2.60;99.90;;;;;;2064867;28;20214;-66
2020/12/15 01:08:17;;;;;;;6.23;3.03;;;2.70;99.90;;;;;;2073168;28;20202;-67
2020/12/15 01:09:17;;;;;;;4.40;3.10;;;2.80;99.90;;;;;;2073481;28;20179;-66
2020/12/15 01:10:18;;;;;;;4.27;2.87;;;2.80;99.90;;;;;;2064672;28;20658;-66
2020/12/15 01:11:19;;;;;;;4.73;3.00;;;2.80;99.90;;;;;;2064586;28;20317;-66
2020/12/15 01:12:20;;;;;;;3.97;2.60;;;2.80;99.90;;;;;;2073289;28;20552;-66
2020/12/15 01:13:20;;;;;;;4.40;2.60;;;2.80;99.90;;;;;;2073335;28;20341;-66
2020/12/15 01:14:22;;;;;;;4.17;2.80;;;2.90;99.90;;;;;;2073316;28;20255;-66
2020/12/15 01:15:22;;;;;;;4.00;2.78;;;2.90;99.90;;;;;;2073328;28;20190;-66
2020/12/15 01:16:23;;;;;;;2.33;2.00;;;2.90;99.90;;;;;;2073376;28;20186;-66
2020/12/15 01:17:24;;;;;;;5.20;2.70;;;3.00;99.90;;;;;;2073460;28;20178;-66
2020/12/15 01:18:24;;;;;;;3.10;2.20;;;3.10;99.90;;;;;;2073231;28;20264;-66
2020/12/15 01:19:25;;;;;;;2.73;2.40;;;3.20;99.90;;;;;;2072686;28;20186;-66
2020/12/15 01:20:26;;;;;;;2.93;2.23;;;3.20;99.90;;;;;;2072724;28;20185;-66
2020/12/15 01:21:28;;;;;;;3.00;1.67;;;3.30;99.90;;;;;;2073117;28;20181;-66
2020/12/15 01:22:29;;;;;;;2.05;1.60;;;3.30;99.90;;;;;;2072819;28;20264;-66
2020/12/15 01:23:30;;;;;;;2.43;1.70;;;3.50;99.90;;;;;;2072891;28;20189;-66
2020/12/15 01:24:31;;;;;;;2.72;1.50;;;3.60;99.90;;;;;;2073187;28;20210;-66
2020/12/15 01:25:32;;;;;;;1.77;1.47;;;3.70;99.90;;;;;;2073438;28;20561;-67
2020/12/15 01:26:32;;;;;;;2.73;1.30;;;3.80;99.90;;;;;;2073221;28;20184;-66
2020/12/15 01:27:33;;;;;;;1.33;1.10;;;3.80;99.90;;;;;;2073181;28;20189;-66
2020/12/15 01:28:34;;;;;;;2.00;1.60;;;3.80;99.90;;;;;;2073275;28;20229;-66
2020/12/15 01:29:35;;;;;;;1.83;1.30;;;3.90;99.90;;;;;;2073569;28;20220;-66
2020/12/15 01:30:36;;;;;;;2.60;1.57;;;4.00;99.90;;;;;;2073072;28;20614;-66
2020/12/15 01:31:36;;;;;;;1.50;1.40;;;3.90;99.90;;;;;;2064460;28;20181;-66
2020/12/15 01:32:37;;;;;;;3.37;2.00;;;3.80;99.90;;;;;;2055820;28;20186;-66
2020/12/15 01:33:38;;;;;;;3.83;2.53;;;3.90;99.90;;;;;;2064510;28;20175;-68
2020/12/15 01:34:38;;;;;;;3.20;2.30;;;4.00;99.90;;;;;;2064566;28;20664;-66
2020/12/15 01:35:39;;;;;;;3.97;2.60;;;3.90;99.90;;;;;;2064466;28;20176;-66
2020/12/15 01:36:41;;;;;;;4.77;3.60;;;3.80;99.90;;;;;;2073285;28;20182;-66
2020/12/15 01:37:41;;;;;;;5.95;2.65;;;3.70;99.90;;;;;;2064254;28;20185;-66
2020/12/15 01:38:42;;;;;;;4.97;2.97;;;3.60;99.90;;;;;;2064648;28;20910;-66
2020/12/15 01:39:43;;;;;;;3.70;2.67;;;3.70;99.90;;;;;;2073226;28;20617;-69
2020/12/15 01:40:51;;;;;;;4.47;3.10;;;3.70;99.90;;;;;;2073173;28;20441;-66
2020/12/15 01:41:51;;;;;;;3.53;2.78;;;3.70;99.90;;;;;;2073220;28;20346;-66
2020/12/15 01:42:52;;;;;;;2.87;2.07;;;3.70;99.90;;;;;;2073244;28;20982;-66
2020/12/15 01:44:04;;;;;;;3.60;2.10;;;3.70;99.90;;;;;;2072754;28;20271;-66
2020/12/15 01:45:06;;;;;;;3.22;1.58;;;3.70;99.90;;;;;;2073178;28;20705;-66
2020/12/15 01:46:07;;;;;;;3.80;1.83;;;3.70;99.90;;;;;;2072920;28;20179;-66
2020/12/15 01:47:09;;;;;;;4.00;2.20;;;3.60;99.90;;;;;;2064486;28;20195;-66
2020/12/15 01:48:10;;;;;;;3.85;2.25;;;3.70;99.90;;;;;;2064444;28;20192;-66
2020/12/15 01:49:11;;;;;;;3.17;2.20;;;3.60;99.90;;;;;;2073052;28;20210;-66
2020/12/15 01:50:12;;;;;;;3.17;2.50;;;3.60;99.90;;;;;;2073234;28;20552;-66
2020/12/15 01:51:15;;;;;;;3.35;1.85;;;3.60;99.90;;;;;;2072978;28;20454;-66
2020/12/15 01:52:18;;;;;;;3.47;2.65;;;3.60;99.90;;;;;;2072925;28;20188;-67
2020/12/15 01:53:19;;;;;;;3.83;2.70;;;3.70;99.90;;;;;;2064462;28;20193;-66
2020/12/15 01:54:20;;;;;;;5.57;3.22;;;3.60;99.90;;;;;;2056164;28;20626;-66
2020/12/15 01:55:21;;;;;;;4.32;3.03;;;3.50;99.90;;;;;;2056497;28;20185;-66
2020/12/15 01:56:22;;;;;;;5.90;3.40;;;3.60;99.90;;;;;;2064276;28;20191;-66
2020/12/15 01:57:25;;;;;;;3.80;2.65;;;3.60;99.90;;;;;;2073140;28;20207;-66
2020/12/15 01:58:25;;;;;;;5.15;3.60;;;3.50;99.90;;;;;;2073036;28;20211;-66
2020/12/15 01:59:27;;;;;;;3.50;2.17;;;3.60;99.90;;;;;;2073162;28;20211;-66
2020/12/15 02:00:29;;;;;;;3.35;2.58;;;3.50;99.90;;;;;;2064129;28;20241;-66
2020/12/15 02:01:40;;;;;;;4.05;3.00;;;3.40;99.90;;;;;;2064305;28;20267;-66
2020/12/15 02:02:41;;;;;;;4.00;2.95;;;3.30;99.90;;;;;;2072935;28;20695;-66
2020/12/15 02:03:42;;;;;;;4.17;3.03;;;3.40;99.90;;;;;;2073028;28;20228;-66
2020/12/15 02:04:42;;;;;;;4.70;3.27;;;3.40;99.90;;;;;;2072910;28;20227;-66
2020/12/15 02:05:45;;;;;;;4.47;3.50;;;3.40;99.90;;;;;;2073319;28;20186;-66
2020/12/15 02:06:49;;;;;;;4.63;3.20;;;3.40;99.90;;;;;;2064390;28;20236;-66
2020/12/15 02:07:51;;;;;;;4.75;2.88;;;3.40;99.90;;;;;;2056873;28;20272;-66
2020/12/15 02:08:51;;;;;;;4.22;3.40;;;3.40;99.90;;;;;;2056343;28;20469;-66
2020/12/15 02:09:54;;;;;;;6.40;4.00;;;3.40;99.90;;;;;;2064313;28;20221;-66
2020/12/15 02:10:55;;;;;;;4.13;2.63;;;3.40;99.90;;;;;;2072096;28;20174;-66
2020/12/15 02:11:55;;;;;;;6.40;3.10;;;3.40;99.90;;;;;;2073174;28;20205;-66
2020/12/15 02:12:56;;;;;;;5.27;3.10;;;3.40;99.90;;;;;;2072912;28;20175;-66
2020/12/15 02:13:57;;;;;;;4.50;3.37;;;3.20;99.90;;;;;;2073017;28;20183;-66
2020/12/15 02:14:58;;;;;;;4.55;2.95;;;3.10;99.90;;;;;;2064076;28;20183;-66
2020/12/15 02:15:59;;;;;;;4.20;2.93;;;3.10;99.90;;;;;;2064313;28;20206;-66
2020/12/15 02:17:02;;;;;;;6.63;4.55;;;3.10;99.90;;;;;;2064017;28;20219;-66
2020/12/15 02:18:03;;;;;;;6.15;4.28;;;3.10;99.90;;;;;;2073002;28;20210;-66
2020/12/15 02:19:04;;;;;;;9.43;3.97;;;3.00;99.90;;;;;;2072976;28;20177;-66
2020/12/15 02:20:10;;;;;;;5.50;3.50;;;3.00;99.90;;;;;;2073076;28;20207;-66
2020/12/15 02:21:11;;;;;;;5.72;3.63;;;3.00;99.90;;;;;;2063864;28;21025;-66
2020/12/15 02:22:12;;;;;;;6.20;3.90;;;3.00;99.90;;;;;;2064241;28;20188;-66
2020/12/15 02:23:12;;;;;;;5.60;3.90;;;3.10;99.90;;;;;;2072823;28;20194;-66
2020/12/15 02:24:13;;;;;;;4.90;3.20;;;3.10;99.90;;;;;;2072940;28;20575;-66
2020/12/15 02:25:14;;;;;;;4.97;3.67;;;3.20;99.90;;;;;;2072784;28;20222;-67
2020/12/15 02:26:15;;;;;;;4.20;3.17;;;3.20;99.90;;;;;;2072896;28;20217;-66
2020/12/15 02:27:15;;;;;;;4.07;3.13;;;3.30;99.90;;;;;;2072799;28;20178;-66
2020/12/15 02:28:16;;;;;;;4.93;2.87;;;3.30;99.90;;;;;;2072783;28;20223;-66
2020/12/15 02:29:17;;;;;;;5.03;3.37;;;3.30;99.90;;;;;;2048060;29;20180;-66
2020/12/15 02:30:18;;;;;;;3.67;2.60;;;3.30;99.90;;;;;;2048354;28;20547;-66
2020/12/15 02:31:18;;;;;;;3.97;2.97;;;3.30;99.90;;;;;;2072622;28;20620;-66
2020/12/15 02:32:19;;;;;;;4.20;2.87;;;3.40;99.90;;;;;;2072891;28;20228;-66
2020/12/15 02:33:20;;;;;;;4.53;3.00;;;3.50;99.90;;;;;;2072848;28;20647;-67
2020/12/15 02:34:20;;;;;;;5.27;2.90;;;3.50;99.90;;;;;;2072812;28;20605;-67
2020/12/15 02:35:21;;;;;;;5.70;2.97;;;3.50;99.90;;;;;;2073020;28;20203;-66
2020/12/15 02:36:22;;;;;;;4.47;2.70;;;3.50;99.90;;;;;;2072854;28;20178;-66
2020/12/15 02:37:23;;;;;;;4.13;3.37;;;3.40;99.90;;;;;;2072909;28;20247;-66
2020/12/15 02:38:23;;;;;;;4.57;2.87;;;3.40;99.90;;;;;;2072886;28;20217;-66
2020/12/15 02:39:24;;;;;;;5.33;2.90;;;3.30;99.90;;;;;;2072760;28;20626;-66
2020/12/15 02:40:25;;;;;;;4.33;3.13;;;3.30;99.90;;;;;;2072959;28;20213;-66
2020/12/15 02:41:25;;;;;;;5.63;3.60;;;3.40;99.90;;;;;;2072432;28;20194;-66
2020/12/15 02:42:31;;;;;;;6.43;3.40;;;3.40;99.90;;;;;;2072840;28;20186;-66
2020/12/15 02:43:32;;;;;;;3.80;2.85;;;3.40;99.90;;;;;;2072449;28;20195;-66
2020/12/15 02:44:32;;;;;;;3.20;2.43;;;3.40;99.90;;;;;;2072733;28;20261;-66
2020/12/15 02:45:33;;;;;;;3.83;2.17;;;3.20;99.90;;;;;;2074413;28;20181;-66
2020/12/15 02:46:34;;;;;;;3.83;2.70;;;3.20;99.90;;;;;;2074706;28;20243;-66
2020/12/15 02:47:35;;;;;;;4.75;2.95;;;3.20;99.90;;;;;;2074515;28;20211;-66
2020/12/15 02:48:36;;;;;;;6.27;3.53;;;3.20;99.90;;;;;;2074441;28;20183;-67
2020/12/15 02:49:36;;;;;;;5.43;3.30;;;3.20;99.90;;;;;;2074467;28;20266;-66
2020/12/15 02:50:37;;;;;;;4.60;3.17;;;3.20;99.90;;;;;;2074442;28;20179;-66
2020/12/15 02:51:38;;;;;;;4.57;3.07;;;3.10;99.90;;;;;;2074360;28;20171;-66
2020/12/15 02:52:38;;;;;;;6.83;3.40;;;3.10;99.90;;;;;;2074012;28;20202;-66
2020/12/15 02:53:39;;;;;;;3.83;3.10;;;3.10;99.90;;;;;;2074489;28;20612;-67
2020/12/15 02:54:40;;;;;;;4.27;3.20;;;3.10;99.90;;;;;;2074446;28;20210;-69
2020/12/15 02:55:40;;;;;;;5.07;3.10;;;3.10;99.90;;;;;;2074453;28;20269;-67
2020/12/15 02:56:41;;;;;;;4.80;3.33;;;3.10;99.90;;;;;;2074281;28;20204;-67
2020/12/15 02:57:42;;;;;;;5.63;3.10;;;3.10;99.90;;;;;;2065641;28;20194;-66
2020/12/15 02:58:43;;;;;;;3.42;2.60;;;3.10;99.90;;;;;;2065693;28;20459;-66
2020/12/15 02:59:44;;;;;;;4.70;2.57;;;3.10;99.90;;;;;;2073759;28;20190;-67
2020/12/15 03:00:45;;;;;;;3.92;2.67;;;3.00;99.90;;;;;;2073463;28;20315;-67
2020/12/15 03:01:48;;;;;;;3.60;2.80;;;2.90;99.90;;;;;;2074277;28;20744;-66
2020/12/15 03:02:48;;;;;;;4.07;3.20;;;2.90;99.90;;;;;;2074165;28;20189;-66
2020/12/15 03:03:49;;;;;;;5.00;3.23;;;2.90;99.90;;;;;;2074343;28;20213;-66
2020/12/15 03:04:50;;;;;;;4.83;3.20;;;3.00;99.90;;;;;;2074343;28;20200;-66
2020/12/15 03:05:50;;;;;;;4.37;3.30;;;3.00;99.90;;;;;;2074184;28;20265;-66
2020/12/15 03:06:51;;;;;;;4.23;2.97;;;2.90;99.90;;;;;;2074125;28;20620;-67
2020/12/15 03:07:52;;;;;;;3.43;2.80;;;2.90;99.90;;;;;;2074185;28;20186;-66
2020/12/15 03:08:52;;;;;;;4.63;3.07;;;2.90;99.90;;;;;;2074260;28;20549;-67
2020/12/15 03:09:53;;;;;;;4.37;3.10;;;3.00;99.90;;;;;;2074407;28;20182;-67
2020/12/15 03:10:54;;;;;;;4.10;2.77;;;3.00;99.90;;;;;;2074104;28;20175;-66
2020/12/15 03:11:59;;;;;;;4.33;2.80;;;3.00;99.90;;;;;;2065499;28;20282;-66
2020/12/15 03:12:59;;;;;;;4.60;2.83;;;3.00;99.90;;;;;;2066189;28;20180;-66
2020/12/15 03:14:01;;;;;;;3.63;3.07;;;3.00;99.90;;;;;;2074639;28;20243;-67
2020/12/15 03:15:02;;;;;;;4.90;3.10;;;3.10;99.90;;;;;;2074474;28;20264;-66
2020/12/15 03:16:03;;;;;;;5.50;3.23;;;3.10;99.90;;;;;;2074341;28;20209;-66
2020/12/15 03:17:04;;;;;;;5.37;3.67;;;3.10;99.90;;;;;;2074378;28;20184;-68
2020/12/15 03:18:04;;;;;;;4.70;3.10;;;3.10;99.90;;;;;;2074128;28;20276;-66
2020/12/15 03:19:05;;;;;;;3.73;2.97;;;3.10;99.90;;;;;;2074354;28;20667;-66
2020/12/15 03:20:06;;;;;;;4.60;3.20;;;3.10;99.90;;;;;;2074279;28;20190;-66
2020/12/15 03:21:08;;;;;;;2.97;2.43;;;3.00;99.90;;;;;;2074053;28;20205;-66
2020/12/15 03:22:16;;;;;;;5.63;2.90;;;3.00;99.90;;;;;;2074320;28;20192;-66
2020/12/15 03:23:18;;;;;;;4.07;2.90;;;3.00;99.90;;;;;;2074128;28;20169;-66
2020/12/15 03:24:19;;;;;;;3.30;2.83;;;3.00;99.90;;;;;;2074382;28;20257;-66
2020/12/15 03:25:20;;;;;;;4.13;3.07;;;3.00;99.90;;;;;;2065469;28;20222;-66
2020/12/15 03:26:21;;;;;;;3.47;2.83;;;3.00;99.90;;;;;;2065699;28;20180;-67
2020/12/15 03:27:21;;;;;;;3.17;2.17;;;3.00;99.90;;;;;;2074192;28;20690;-66
2020/12/15 03:28:22;;;;;;;3.83;2.53;;;3.00;99.90;;;;;;2073797;28;20210;-66
2020/12/15 03:29:23;;;;;;;3.23;2.70;;;3.00;99.90;;;;;;2074009;28;20174;-66
2020/12/15 03:30:23;;;;;;;3.40;2.63;;;3.10;99.90;;;;;;2074147;28;20526;-67
2020/12/15 03:31:24;;;;;;;3.93;2.63;;;3.10;99.90;;;;;;2073324;28;20182;-66
2020/12/15 03:32:25;;;;;;;3.60;2.50;;;3.20;99.90;;;;;;2073589;28;20170;-67
2020/12/15 03:33:25;;;;;;;3.77;2.80;;;3.20;99.90;;;;;;2074133;28;20776;-66
2020/12/15 03:34:26;;;;;;;3.30;2.47;;;3.20;99.90;;;;;;2073908;28;20175;-66
2020/12/15 03:35:27;;;;;;;2.90;2.30;;;3.30;99.90;;;;;;2074223;28;20193;-66
2020/12/15 03:36:29;;;;;;;3.75;2.88;;;3.30;99.90;;;;;;2073861;28;20180;-66
2020/12/15 03:37:29;;;;;;;4.75;2.65;;;3.40;99.90;;;;;;2074184;28;20571;-66
2020/12/15 03:38:30;;;;;;;3.23;2.43;;;3.20;99.90;;;;;;2073930;28;20238;-66
2020/12/15 03:39:31;;;;;;;3.43;2.77;;;3.20;99.90;;;;;;2074076;28;20352;-66
2020/12/15 03:40:32;;;;;;;5.03;2.50;;;3.20;99.90;;;;;;2074025;28;20269;-66
2020/12/15 03:41:33;;;;;;;4.07;2.97;;;3.20;99.90;;;;;;2074111;28;20193;-66
2020/12/15 03:42:34;;;;;;;3.05;2.53;;;3.20;99.90;;;;;;2074058;28;20228;-66
2020/12/15 03:43:35;;;;;;;4.50;3.07;;;3.20;99.90;;;;;;2074097;28;20780;-66
2020/12/15 03:44:37;;;;;;;3.75;2.70;;;3.20;99.90;;;;;;2073610;28;20211;-66
2020/12/15 03:45:43;;;;;;;3.38;2.70;;;3.20;99.90;;;;;;2073962;28;20537;-66
2020/12/15 03:46:43;;;;;;;3.55;2.50;;;3.20;99.90;;;;;;2073749;28;20703;-66
2020/12/15 03:47:44;;;;;;;5.27;2.60;;;3.20;99.90;;;;;;2073871;28;20178;-66
2020/12/15 03:48:45;;;;;;;5.00;3.25;;;3.20;99.90;;;;;;2073873;28;20654;-66
2020/12/15 03:49:46;;;;;;;3.73;2.60;;;3.10;99.90;;;;;;2071868;28;20194;-66
2020/12/15 03:50:47;;;;;;;3.87;2.67;;;3.10;99.90;;;;;;2073643;28;20588;-66
2020/12/15 03:51:47;;;;;;;3.57;2.77;;;3.00;99.90;;;;;;2073898;28;20434;-66
2020/12/15 03:52:48;;;;;;;3.87;2.80;;;3.00;99.90;;;;;;2074056;28;20189;-66
2020/12/15 03:53:49;;;;;;;2.77;2.30;;;3.00;99.90;;;;;;2073985;28;20231;-66
2020/12/15 03:54:49;;;;;;;5.20;3.00;;;3.00;99.90;;;;;;2074042;28;20175;-66
2020/12/15 03:55:50;;;;;;;2.70;2.20;;;3.00;99.90;;;;;;2073465;28;20182;-66
2020/12/15 03:56:51;;;;;;;4.00;2.50;;;3.00;99.90;;;;;;2074147;28;20208;-66
2020/12/15 03:57:51;;;;;;;4.20;2.80;;;3.00;99.90;;;;;;2079915;28;20190;-66
2020/12/15 03:58:52;;;;;;;3.20;2.20;;;3.10;99.90;;;;;;2081712;28;20187;-66
2020/12/15 03:59:53;;;;;;;5.10;2.80;;;3.20;99.90;;;;;;2082125;28;20174;-66
2020/12/15 04:00:53;;;;;;;4.27;2.90;;;3.10;99.90;;;;;;2081920;28;20202;-66
2020/12/15 04:01:54;;;;;;;2.83;2.43;;;3.10;99.90;;;;;;2080684;28;20273;-67
2020/12/15 04:02:55;;;;;;;3.77;2.70;;;3.00;99.90;;;;;;2074513;28;20205;-66
2020/12/15 04:03:55;;;;;;;4.17;2.67;;;2.90;99.90;;;;;;2074334;28;20667;-66
2020/12/15 04:04:56;;;;;;;3.27;2.50;;;2.90;99.90;;;;;;2074590;28;20179;-66
2020/12/15 04:05:57;;;;;;;6.10;2.93;;;2.90;99.90;;;;;;2074232;28;20183;-66
2020/12/15 04:06:58;;;;;;;4.07;2.92;;;2.90;99.90;;;;;;2073844;28;20188;-66
2020/12/15 04:07:59;;;;;;;4.70;3.60;;;3.00;99.90;;;;;;2073378;28;20255;-66
2020/12/15 04:08:59;;;;;;;3.70;3.13;;;3.00;99.90;;;;;;2070222;28;20204;-67
2020/12/15 04:10:00;;;;;;;5.13;3.90;;;3.10;99.90;;;;;;2080072;28;20211;-66
2020/12/15 04:11:02;;;;;;;4.90;3.00;;;3.10;99.90;;;;;;2080402;28;20178;-66
2020/12/15 04:12:03;;;;;;;4.78;3.30;;;3.20;99.90;;;;;;2079139;28;20187;-67
2020/12/15 04:13:03;;;;;;;3.30;2.40;;;3.20;99.90;;;;;;2074039;28;20289;-66
2020/12/15 04:14:04;;;;;;;4.57;2.63;;;3.20;99.90;;;;;;2074062;28;20236;-66
2020/12/15 04:15:06;;;;;;;4.03;2.73;;;3.10;99.90;;;;;;2073838;28;20270;-66
2020/12/15 04:16:06;;;;;;;4.70;2.50;;;3.10;99.90;;;;;;2074020;28;20205;-66
2020/12/15 04:17:11;;;;;;;3.60;2.53;;;3.10;99.90;;;;;;2073952;28;20224;-66
2020/12/15 04:18:12;;;;;;;5.57;3.30;;;3.20;99.90;;;;;;2073748;28;20557;-66
2020/12/15 04:19:13;;;;;;;3.55;2.97;;;3.10;99.90;;;;;;2081372;28;20194;-66
2020/12/15 04:20:14;;;;;;;4.73;3.03;;;3.10;99.90;;;;;;2081526;28;20234;-66
2020/12/15 04:21:15;;;;;;;4.97;2.90;;;3.10;99.90;;;;;;2073381;28;20182;-66
2020/12/15 04:22:15;;;;;;;3.63;2.80;;;3.10;99.90;;;;;;2073827;28;20241;-66
2020/12/15 04:23:16;;;;;;;3.27;2.10;;;3.10;99.90;;;;;;2073413;28;20189;-66
2020/12/15 04:24:17;;;;;;;4.33;2.83;;;3.10;99.90;;;;;;2073784;28;20260;-66
2020/12/15 04:25:17;;;;;;;5.97;3.37;;;3.10;99.90;;;;;;2073903;28;20677;-66
2020/12/15 04:26:18;;;;;;;4.47;2.60;;;3.00;99.90;;;;;;2073795;28;20646;-66
2020/12/15 04:27:19;;;;;;;4.80;2.90;;;2.90;99.90;;;;;;2073948;28;20178;-66
2020/12/15 04:28:19;;;;;;;5.30;3.00;;;2.90;99.90;;;;;;2073732;28;20209;-66
2020/12/15 04:29:20;;;;;;;4.87;2.93;;;2.90;99.90;;;;;;2073793;28;20178;-66
2020/12/15 04:30:21;;;;;;;4.83;3.23;;;3.00;99.90;;;;;;2074017;28;20174;-66
2020/12/15 04:31:21;;;;;;;2.80;2.53;;;3.00;99.90;;;;;;2073612;28;20532;-66
2020/12/15 04:32:23;;;;;;;3.93;2.90;;;3.10;99.90;;;;;;2076320;28;20178;-66
2020/12/15 04:33:24;;;;;;;2.70;2.22;;;3.10;99.90;;;;;;2076958;28;20246;-66
2020/12/15 04:34:24;;;;;;;4.13;3.13;;;3.10;99.90;;;;;;2076724;28;20217;-67
2020/12/15 04:35:25;;;;;;;3.63;2.70;;;3.10;99.90;;;;;;2076746;28;20671;-67
2020/12/15 04:36:26;;;;;;;4.00;2.93;;;3.00;99.90;;;;;;2076739;28;20634;-66
2020/12/15 04:37:27;;;;;;;4.53;3.20;;;3.00;99.90;;;;;;2076690;28;20306;-67
2020/12/15 04:38:27;;;;;;;4.57;2.50;;;3.10;99.90;;;;;;2076535;28;20284;-66
2020/12/15 04:39:28;;;;;;;3.03;2.57;;;3.10;99.90;;;;;;2074174;28;20178;-66
2020/12/15 04:40:32;;;;;;;4.97;3.07;;;3.20;99.90;;;;;;2073711;28;20194;-66
2020/12/15 04:41:33;;;;;;;4.53;3.83;;;3.20;99.90;;;;;;2073571;28;20225;-66
2020/12/15 04:42:35;;;;;;;4.40;4.00;;;3.20;99.90;;;;;;2073759;28;20186;-67
2020/12/15 04:43:36;;;;;;;4.53;3.60;;;3.20;99.90;;;;;;2073018;28;20610;-67
2020/12/15 04:44:38;;;;;;;5.05;3.78;;;3.20;99.90;;;;;;2064798;28;20282;-66
2020/12/15 04:45:38;;;;;;;5.15;3.00;;;3.00;99.90;;;;;;2072485;28;20189;-66
2020/12/15 04:47:18;;;;;;;3.30;2.77;;;3.00;99.90;;;;;;2073403;28;20186;-66
2020/12/15 04:48:24;;;;;;;5.63;3.95;;;3.00;99.90;;;;;;2073179;28;20201;-66
2020/12/15 04:49:28;;;;;;;5.05;3.92;;;2.90;99.90;;;;;;2072756;28;20166;-66
2020/12/15 04:50:34;;;;;;;5.95;4.18;;;2.90;99.90;;;;;;2072400;28;20603;-67
2020/12/15 04:52:04;;;;;;;3.22;2.90;;;2.90;99.90;;;;;;2072791;28;20166;-66
2020/12/15 04:53:11;;;;;;;4.00;3.20;;;3.00;99.90;;;;;;2072885;28;20273;-66
2020/12/15 04:54:16;;;;;;;4.25;3.15;;;3.00;99.90;;;;;;2065349;28;20187;-66
2020/12/15 04:55:19;;;;;;;5.30;3.20;;;3.00;99.90;;;;;;2065250;28;20794;-66
2020/12/15 04:56:31;;;;;;;4.05;3.17;;;2.90;99.90;;;;;;2064677;28;20559;-66
2020/12/15 04:57:34;;;;;;;3.83;3.00;;;3.00;99.90;;;;;;2072877;28;20672;-66
2020/12/15 04:58:35;;;;;;;5.03;2.75;;;3.00;99.90;;;;;;2073139;28;20588;-66
2020/12/15 04:59:36;;;;;;;3.92;3.10;;;3.10;99.90;;;;;;2072625;28;20192;-66
2020/12/15 05:00:37;;;;;;;5.67;2.43;;;3.10;99.90;;;;;;2072474;28;20181;-67
2020/12/15 05:01:39;;;;;;;4.13;2.73;;;3.00;99.90;;;;;;2073013;28;20180;-66
2020/12/15 05:02:44;;;;;;;4.30;2.80;;;3.00;99.90;;;;;;2065954;28;20629;-66
2020/12/15 05:03:48;;;;;;;3.95;2.92;;;3.00;99.90;;;;;;2064913;28;20200;-66
2020/12/15 05:04:50;;;;;;;3.45;2.80;;;3.00;99.90;;;;;;2064342;28;20192;-66
2020/12/15 05:05:51;;;;;;;4.13;2.95;;;3.00;99.90;;;;;;2064689;28;20322;-66
2020/12/15 05:06:54;;;;;;;4.33;2.90;;;3.10;99.90;;;;;;2073045;28;20259;-66
2020/12/15 05:08:01;;;;;;;4.38;3.00;;;3.20;99.90;;;;;;2072484;28;20277;-66
2020/12/15 05:09:03;;;;;;;2.65;2.45;;;3.00;99.90;;;;;;2065764;28;20221;-67
2020/12/15 05:10:04;;;;;;;7.28;6.57;;;2.90;99.90;;;;;;2064674;28;20192;-66
2020/12/15 05:11:05;;;;;;;6.00;5.40;;;3.40;99.90;;;;;;2073033;28;20545;-66
2020/12/15 05:12:06;;;;;;;5.10;4.30;;;2.90;99.90;;;;;;2073106;28;20229;-66
2020/12/15 05:13:06;;;;;;;5.03;4.07;;;2.90;99.90;;;;;;2072825;28;20261;-67
2020/12/15 05:14:07;;;;;;;5.77;4.57;;;2.90;99.90;;;;;;2073178;28;20259;-66
2020/12/15 05:15:13;;;;;;;14.13;10.03;;;3.00;99.90;;;;;;2064365;28;20194;-66
2020/12/15 05:16:15;;;;;;;15.63;11.05;;;3.00;99.90;;;;;;2065271;28;20186;-66
2020/12/15 05:17:27;;;;;;;15.23;9.77;;;2.90;99.90;;;;;;2073117;28;20183;-67
2020/12/15 05:18:28;;;;;;;8.70;7.35;;;2.90;99.90;;;;;;2064391;28;20211;-66
2020/12/15 05:19:29;;;;;;;11.03;7.77;;;2.90;99.90;;;;;;2064448;28;20187;-67
2020/12/15 05:20:31;;;;;;;12.83;7.50;;;2.90;99.90;;;;;;2073299;28;20197;-66
2020/12/15 05:21:32;;;;;;;8.02;6.18;;;2.90;99.90;;;;;;2072657;28;20192;-66
2020/12/15 05:22:46;;;;;;;7.30;5.43;;;2.90;99.90;;;;;;2073200;28;20194;-66
2020/12/15 05:23:54;;;;;;;8.63;5.07;;;3.00;99.90;;;;;;2072850;28;20540;-66